sensor_id;sensor_type;location;lat;lon;timestamp;pressure;altitude;pressure_sealevel;temperature;humidity
56825;BME280;42705;50.326;18.772;2022-07-29T00:02:35;98728.66;;;19.48;44.60
56825;BME280;42705;50.326;18.772;2022-07-29T00:07:56;98731.76;;;19.41;44.89
56825;BME280;42705;50.326;18.772;2022-07-29T00:13:17;98727.73;;;19.34;45.18
56825;BME280;42705;50.326;18.772;2022-07-29T00:18:37;98726.34;;;19.27;45.47
56825;BME280;42705;50.326;18.772;2022-07-29T00:23:59;98724.30;;;19.18;45.76
56825;BME280;42705;50.326;18.772;2022-07-29T00:29:20;98712.59;;;19.13;46.07
56825;BME280;42705;50.326;18.772;2022-07-29T00:34:41;98714.26;;;19.03;46.22
56825;BME280;42705;50.326;18.772;2022-07-29T00:40:20;98709.85;;;18.95;46.41
56825;BME280;42705;50.326;18.772;2022-07-29T00:45:42;98708.59;;;18.91;46.53
56825;BME280;42705;50.326;18.772;2022-07-29T00:51:04;98703.83;;;18.86;46.58
56825;BME280;42705;50.326;18.772;2022-07-29T00:56:26;98702.19;;;18.85;46.57
56825;BME280;42705;50.326;18.772;2022-07-29T01:01:47;98693.42;;;18.85;46.56
56825;BME280;42705;50.326;18.772;2022-07-29T01:07:08;98695.38;;;18.87;46.50
56825;BME280;42705;50.326;18.772;2022-07-29T01:12:30;98689.18;;;18.79;46.43
56825;BME280;42705;50.326;18.772;2022-07-29T01:18:29;98693.77;;;18.71;46.46
56825;BME280;42705;50.326;18.772;2022-07-29T01:29:55;98694.44;;;18.58;46.61
56825;BME280;42705;50.326;18.772;2022-07-29T01:35:26;98690.89;;;18.50;46.71
56825;BME280;42705;50.326;18.772;2022-07-29T01:41:08;98687.02;;;18.53;46.81
56825;BME280;42705;50.326;18.772;2022-07-29T01:46:33;98677.95;;;18.51;46.67
56825;BME280;42705;50.326;18.772;2022-07-29T01:51:58;98671.48;;;18.50;46.58
56825;BME280;42705;50.326;18.772;2022-07-29T01:57:25;98665.17;;;18.51;46.49
56825;BME280;42705;50.326;18.772;2022-07-29T02:02:47;98657.97;;;18.45;46.31
56825;BME280;42705;50.326;18.772;2022-07-29T02:08:09;98661.19;;;18.40;46.25
56825;BME280;42705;50.326;18.772;2022-07-29T02:13:32;98662.63;;;18.43;46.26
56825;BME280;42705;50.326;18.772;2022-07-29T02:18:55;98661.45;;;18.45;46.29
56825;BME280;42705;50.326;18.772;2022-07-29T02:24:18;98661.13;;;18.44;45.99
56825;BME280;42705;50.326;18.772;2022-07-29T02:29:41;98669.09;;;18.44;46.03
56825;BME280;42705;50.326;18.772;2022-07-29T02:35:03;98665.23;;;18.47;45.96
56825;BME280;42705;50.326;18.772;2022-07-29T02:40:25;98657.80;;;18.46;45.95
56825;BME280;42705;50.326;18.772;2022-07-29T02:45:47;98661.51;;;18.52;45.89
56825;BME280;42705;50.326;18.772;2022-07-29T02:51:16;98649.57;;;18.52;45.74
56825;BME280;42705;50.326;18.772;2022-07-29T02:56:44;98640.26;;;18.56;45.56
56825;BME280;42705;50.326;18.772;2022-07-29T03:02:07;98645.36;;;18.58;45.49
56825;BME280;42705;50.326;18.772;2022-07-29T03:07:29;98635.91;;;18.59;45.39
56825;BME280;42705;50.326;18.772;2022-07-29T03:12:51;98636.71;;;18.60;45.31
56825;BME280;42705;50.326;18.772;2022-07-29T03:18:13;98636.53;;;18.61;45.22
56825;BME280;42705;50.326;18.772;2022-07-29T03:23:34;98632.18;;;18.64;45.25
56825;BME280;42705;50.326;18.772;2022-07-29T03:28:55;98628.83;;;18.66;45.16
56825;BME280;42705;50.326;18.772;2022-07-29T03:34:16;98625.55;;;18.64;45.14
56825;BME280;42705;50.326;18.772;2022-07-29T03:39:40;98638.35;;;18.61;45.07
56825;BME280;42705;50.326;18.772;2022-07-29T03:45:05;98638.35;;;18.61;45.12
56825;BME280;42705;50.326;18.772;2022-07-29T03:53:04;98629.25;;;18.70;45.26
56825;BME280;42705;50.326;18.772;2022-07-29T03:58:26;98634.94;;;18.67;45.16
56825;BME280;42705;50.326;18.772;2022-07-29T04:03:48;98639.70;;;18.72;45.25
56825;BME280;42705;50.326;18.772;2022-07-29T04:09:10;98644.56;;;18.79;45.33
56825;BME280;42705;50.326;18.772;2022-07-29T04:14:32;98641.67;;;18.85;45.28
56825;BME280;42705;50.326;18.772;2022-07-29T04:19:53;98642.92;;;18.89;45.41
56825;BME280;42705;50.326;18.772;2022-07-29T04:25:14;98648.34;;;18.91;45.46
56825;BME280;42705;50.326;18.772;2022-07-29T04:30:36;98649.36;;;18.90;45.55
56825;BME280;42705;50.326;18.772;2022-07-29T04:35:57;98647.54;;;18.91;45.77
56825;BME280;42705;50.326;18.772;2022-07-29T04:41:18;98632.88;;;18.95;45.95
56825;BME280;42705;50.326;18.772;2022-07-29T04:46:39;98627.08;;;18.95;46.01
56825;BME280;42705;50.326;18.772;2022-07-29T04:52:00;98625.55;;;18.97;46.05
56825;BME280;42705;50.326;18.772;2022-07-29T04:57:20;98621.56;;;18.97;46.26
56825;BME280;42705;50.326;18.772;2022-07-29T05:02:41;98618.59;;;18.96;46.37
56825;BME280;42705;50.326;18.772;2022-07-29T05:08:02;98620.09;;;18.99;46.56
56825;BME280;42705;50.326;18.772;2022-07-29T05:13:23;98610.95;;;18.97;46.59
56825;BME280;42705;50.326;18.772;2022-07-29T05:18:44;98619.25;;;18.98;46.68
56825;BME280;42705;50.326;18.772;2022-07-29T05:24:05;98617.58;;;18.97;46.83
56825;BME280;42705;50.326;18.772;2022-07-29T05:29:26;98618.17;;;19.03;46.93
56825;BME280;42705;50.326;18.772;2022-07-29T05:34:47;98615.27;;;19.09;47.20
56825;BME280;42705;50.326;18.772;2022-07-29T05:40:09;98620.26;;;19.19;47.20
56825;BME280;42705;50.326;18.772;2022-07-29T05:45:30;98624.34;;;19.21;47.24
56825;BME280;42705;50.326;18.772;2022-07-29T05:50:52;98619.80;;;19.26;47.40
56825;BME280;42705;50.326;18.772;2022-07-29T05:56:13;98640.09;;;19.34;47.61
56825;BME280;42705;50.326;18.772;2022-07-29T06:01:34;98643.47;;;19.49;47.82
56825;BME280;42705;50.326;18.772;2022-07-29T06:06:56;98634.38;;;19.65;47.88
56825;BME280;42705;50.326;18.772;2022-07-29T06:12:17;98628.73;;;19.82;47.97
56825;BME280;42705;50.326;18.772;2022-07-29T06:17:40;98627.14;;;19.99;48.01
56825;BME280;42705;50.326;18.772;2022-07-29T06:23:00;98620.05;;;20.13;48.22
56825;BME280;42705;50.326;18.772;2022-07-29T06:28:23;98613.44;;;20.26;48.22
56825;BME280;42705;50.326;18.772;2022-07-29T06:33:44;98618.61;;;20.41;48.23
56825;BME280;42705;50.326;18.772;2022-07-29T06:39:06;98617.73;;;20.58;48.26
56825;BME280;42705;50.326;18.772;2022-07-29T06:44:27;98622.05;;;20.73;48.08
56825;BME280;42705;50.326;18.772;2022-07-29T06:49:48;98627.45;;;20.86;48.01
56825;BME280;42705;50.326;18.772;2022-07-29T06:55:09;98638.83;;;21.04;47.72
56825;BME280;42705;50.326;18.772;2022-07-29T07:00:30;98631.14;;;21.19;47.81
56825;BME280;42705;50.326;18.772;2022-07-29T07:05:52;98623.55;;;21.29;47.66
56825;BME280;42705;50.326;18.772;2022-07-29T07:11:14;98626.72;;;21.35;47.53
56825;BME280;42705;50.326;18.772;2022-07-29T07:16:35;98633.50;;;21.45;47.38
56825;BME280;42705;50.326;18.772;2022-07-29T07:21:56;98617.06;;;21.61;47.27
56825;BME280;42705;50.326;18.772;2022-07-29T07:27:17;98616.02;;;21.89;47.19
56825;BME280;42705;50.326;18.772;2022-07-29T07:32:38;98613.56;;;22.17;46.97
56825;BME280;42705;50.326;18.772;2022-07-29T07:37:59;98623.03;;;22.59;46.70
56825;BME280;42705;50.326;18.772;2022-07-29T07:43:20;98623.03;;;22.59;46.70
56825;BME280;42705;50.326;18.772;2022-07-29T07:48:40;98634.75;;;22.74;46.57
56825;BME280;42705;50.326;18.772;2022-07-29T07:54:01;98631.02;;;22.91;46.30
56825;BME280;42705;50.326;18.772;2022-07-29T07:59:22;98629.91;;;23.05;45.95
56825;BME280;42705;50.326;18.772;2022-07-29T08:04:43;98625.34;;;23.22;45.92
56825;BME280;42705;50.326;18.772;2022-07-29T08:10:05;98641.97;;;23.40;45.98
56825;BME280;42705;50.326;18.772;2022-07-29T08:15:27;98640.23;;;23.52;45.96
56825;BME280;42705;50.326;18.772;2022-07-29T08:20:48;98633.11;;;23.65;45.99
56825;BME280;42705;50.326;18.772;2022-07-29T08:26:09;98630.53;;;23.77;45.94
56825;BME280;42705;50.326;18.772;2022-07-29T08:31:33;98632.55;;;23.91;45.79
56825;BME280;42705;50.326;18.772;2022-07-29T08:36:55;98624.89;;;24.04;45.51
56825;BME280;42705;50.326;18.772;2022-07-29T08:42:17;98635.98;;;24.26;45.25
56825;BME280;42705;50.326;18.772;2022-07-29T08:47:39;98618.69;;;24.40;44.86
56825;BME280;42705;50.326;18.772;2022-07-29T08:53:01;98618.28;;;24.55;44.50
56825;BME280;42705;50.326;18.772;2022-07-29T08:58:23;98615.48;;;24.71;44.42
56825;BME280;42705;50.326;18.772;2022-07-29T09:03:45;98621.62;;;24.91;44.36
56825;BME280;42705;50.326;18.772;2022-07-29T09:09:07;98619.01;;;25.05;44.02
56825;BME280;42705;50.326;18.772;2022-07-29T09:14:28;98615.88;;;25.20;43.66
56825;BME280;42705;50.326;18.772;2022-07-29T09:19:49;98612.85;;;25.28;43.60
56825;BME280;42705;50.326;18.772;2022-07-29T09:25:11;98605.86;;;25.39;43.46
56825;BME280;42705;50.326;18.772;2022-07-29T09:30:33;98600.28;;;25.53;43.29
56825;BME280;42705;50.326;18.772;2022-07-29T09:41:28;98604.27;;;25.89;42.94
56825;BME280;42705;50.326;18.772;2022-07-29T09:47:01;98598.30;;;25.98;42.56
56825;BME280;42705;50.326;18.772;2022-07-29T09:52:28;98592.27;;;26.06;42.36
56825;BME280;42705;50.326;18.772;2022-07-29T09:57:50;98591.21;;;26.19;42.22
56825;BME280;42705;50.326;18.772;2022-07-29T10:03:11;98596.06;;;26.34;42.11
56825;BME280;42705;50.326;18.772;2022-07-29T10:08:33;98595.61;;;26.39;42.03
56825;BME280;42705;50.326;18.772;2022-07-29T10:13:54;98592.02;;;26.48;41.77
56825;BME280;42705;50.326;18.772;2022-07-29T10:19:16;98582.76;;;26.56;41.43
56825;BME280;42705;50.326;18.772;2022-07-29T10:24:38;98575.80;;;26.75;41.32
56825;BME280;42705;50.326;18.772;2022-07-29T10:29:59;98571.31;;;26.95;41.35
56825;BME280;42705;50.326;18.772;2022-07-29T10:35:31;98570.94;;;27.23;41.31
56825;BME280;42705;50.326;18.772;2022-07-29T10:46:55;98572.89;;;27.47;39.94
56825;BME280;42705;50.326;18.772;2022-07-29T10:52:16;98573.95;;;27.46;39.89
56825;BME280;42705;50.326;18.772;2022-07-29T10:57:38;98568.72;;;27.54;39.74
56825;BME280;42705;50.326;18.772;2022-07-29T11:03:00;98565.30;;;27.61;39.81
56825;BME280;42705;50.326;18.772;2022-07-29T11:08:21;98557.35;;;27.71;39.54
56825;BME280;42705;50.326;18.772;2022-07-29T11:13:49;98569.72;;;27.92;39.51
56825;BME280;42705;50.326;18.772;2022-07-29T11:24:42;98556.59;;;27.98;39.06
56825;BME280;42705;50.326;18.772;2022-07-29T11:30:04;98553.72;;;28.05;38.95
56825;BME280;42705;50.326;18.772;2022-07-29T11:35:25;98559.94;;;28.08;38.50
56825;BME280;42705;50.326;18.772;2022-07-29T11:46:50;98563.28;;;28.18;38.63
56825;BME280;42705;50.326;18.772;2022-07-29T11:52:11;98562.36;;;28.07;38.55
56825;BME280;42705;50.326;18.772;2022-07-29T11:57:33;98569.66;;;27.87;38.31
56825;BME280;42705;50.326;18.772;2022-07-29T12:02:55;98568.37;;;27.70;38.48
56825;BME280;42705;50.326;18.772;2022-07-29T12:08:19;98572.38;;;27.48;38.29
56825;BME280;42705;50.326;18.772;2022-07-29T12:13:42;98574.27;;;27.30;38.53
56825;BME280;42705;50.326;18.772;2022-07-29T12:19:04;98579.81;;;27.06;38.63
56825;BME280;42705;50.326;18.772;2022-07-29T12:24:25;98580.02;;;26.85;38.76
56825;BME280;42705;50.326;18.772;2022-07-29T12:29:59;98575.44;;;26.68;39.07
56825;BME280;42705;50.326;18.772;2022-07-29T12:35:23;98569.98;;;26.49;39.33
56825;BME280;42705;50.326;18.772;2022-07-29T12:40:45;98569.66;;;26.30;39.39
56825;BME280;42705;50.326;18.772;2022-07-29T12:46:14;98565.74;;;26.21;39.66
56825;BME280;42705;50.326;18.772;2022-07-29T12:51:38;98554.72;;;26.20;39.83
56825;BME280;42705;50.326;18.772;2022-07-29T12:57:01;98546.92;;;26.19;40.11
56825;BME280;42705;50.326;18.772;2022-07-29T13:02:23;98533.59;;;26.24;40.09
56825;BME280;42705;50.326;18.772;2022-07-29T13:07:44;98530.16;;;26.28;40.02
56825;BME280;42705;50.326;18.772;2022-07-29T13:13:08;98526.00;;;26.35;39.94
56825;BME280;42705;50.326;18.772;2022-07-29T13:18:33;98521.55;;;26.58;39.83
56825;BME280;42705;50.326;18.772;2022-07-29T13:23:56;98507.53;;;26.87;39.89
56825;BME280;42705;50.326;18.772;2022-07-29T13:29:17;98501.42;;;27.12;39.72
56825;BME280;42705;50.326;18.772;2022-07-29T13:34:38;98493.09;;;27.33;39.47
56825;BME280;42705;50.326;18.772;2022-07-29T13:40:00;98482.41;;;27.58;39.00
56825;BME280;42705;50.326;18.772;2022-07-29T13:45:23;98468.89;;;28.30;38.61
56825;BME280;42705;50.326;18.772;2022-07-29T13:50:45;98463.63;;;30.88;36.61
56825;BME280;42705;50.326;18.772;2022-07-29T13:56:07;98455.33;;;33.43;34.03
56825;BME280;42705;50.326;18.772;2022-07-29T14:01:27;98438.17;;;36.15;31.33
56825;BME280;42705;50.326;18.772;2022-07-29T14:06:51;98441.20;;;38.34;28.55
56825;BME280;42705;50.326;18.772;2022-07-29T14:12:12;98438.13;;;38.12;27.48
56825;BME280;42705;50.326;18.772;2022-07-29T14:17:32;98437.81;;;39.24;25.93
56825;BME280;42705;50.326;18.772;2022-07-29T14:22:54;98418.51;;;40.51;25.21
56825;BME280;42705;50.326;18.772;2022-07-29T14:28:15;98413.27;;;41.33;23.66
56825;BME280;42705;50.326;18.772;2022-07-29T14:33:36;98405.02;;;41.97;22.80
56825;BME280;42705;50.326;18.772;2022-07-29T14:38:58;98414.55;;;42.44;22.00
56825;BME280;42705;50.326;18.772;2022-07-29T14:44:18;98407.39;;;42.11;21.77
56825;BME280;42705;50.326;18.772;2022-07-29T14:49:39;98416.70;;;41.12;22.09
56825;BME280;42705;50.326;18.772;2022-07-29T14:55:01;98412.42;;;40.33;22.20
56825;BME280;42705;50.326;18.772;2022-07-29T15:00:22;98413.37;;;39.19;22.78
56825;BME280;42705;50.326;18.772;2022-07-29T15:05:43;98415.30;;;37.90;23.41
56825;BME280;42705;50.326;18.772;2022-07-29T15:11:04;98402.91;;;36.62;24.21
56825;BME280;42705;50.326;18.772;2022-07-29T15:16:25;98411.56;;;35.64;24.95
56825;BME280;42705;50.326;18.772;2022-07-29T15:21:45;98421.78;;;34.44;25.94
56825;BME280;42705;50.326;18.772;2022-07-29T15:27:06;98423.39;;;33.35;26.88
56825;BME280;42705;50.326;18.772;2022-07-29T15:32:27;98429.83;;;32.42;27.95
56825;BME280;42705;50.326;18.772;2022-07-29T15:37:48;98426.25;;;31.67;29.01
56825;BME280;42705;50.326;18.772;2022-07-29T15:43:09;98424.42;;;30.88;29.70
56825;BME280;42705;50.326;18.772;2022-07-29T15:48:30;98432.59;;;30.16;30.60
56825;BME280;42705;50.326;18.772;2022-07-29T15:53:53;98436.51;;;29.59;31.43
56825;BME280;42705;50.326;18.772;2022-07-29T15:59:13;98433.37;;;29.16;32.21
56825;BME280;42705;50.326;18.772;2022-07-29T16:04:34;98431.06;;;28.85;33.05
56825;BME280;42705;50.326;18.772;2022-07-29T16:09:55;98425.69;;;28.52;33.90
56825;BME280;42705;50.326;18.772;2022-07-29T16:15:16;98430.28;;;28.19;34.13
56825;BME280;42705;50.326;18.772;2022-07-29T16:20:36;98427.08;;;27.92;34.60
56825;BME280;42705;50.326;18.772;2022-07-29T16:25:57;98432.19;;;27.66;35.15
56825;BME280;42705;50.326;18.772;2022-07-29T16:31:18;98429.72;;;27.40;35.47
56825;BME280;42705;50.326;18.772;2022-07-29T16:36:41;98432.88;;;27.12;36.08
56825;BME280;42705;50.326;18.772;2022-07-29T16:42:02;98430.12;;;26.87;36.95
56825;BME280;42705;50.326;18.772;2022-07-29T16:47:24;98433.72;;;26.58;37.74
56825;BME280;42705;50.326;18.772;2022-07-29T16:52:45;98434.14;;;26.33;38.54
56825;BME280;42705;50.326;18.772;2022-07-29T16:58:06;98445.61;;;26.14;39.47
56825;BME280;42705;50.326;18.772;2022-07-29T17:03:27;98445.01;;;25.95;41.01
56825;BME280;42705;50.326;18.772;2022-07-29T17:08:48;98465.86;;;25.76;41.86
56825;BME280;42705;50.326;18.772;2022-07-29T17:14:09;98474.41;;;25.46;43.09
56825;BME280;42705;50.326;18.772;2022-07-29T17:19:32;98465.02;;;25.34;43.21
56825;BME280;42705;50.326;18.772;2022-07-29T17:24:56;98463.66;;;25.20;43.65
56825;BME280;42705;50.326;18.772;2022-07-29T17:30:17;98468.20;;;25.07;43.88
56825;BME280;42705;50.326;18.772;2022-07-29T17:35:38;98474.61;;;24.94;44.24
56825;BME280;42705;50.326;18.772;2022-07-29T17:41:18;98482.05;;;24.80;44.49
56825;BME280;42705;50.326;18.772;2022-07-29T17:46:39;98479.95;;;24.70;44.88
56825;BME280;42705;50.326;18.772;2022-07-29T17:52:00;98484.36;;;24.65;45.26
56825;BME280;42705;50.326;18.772;2022-07-29T17:57:21;98484.36;;;24.65;45.42
56825;BME280;42705;50.326;18.772;2022-07-29T18:02:41;98485.41;;;24.64;45.54
56825;BME280;42705;50.326;18.772;2022-07-29T18:08:03;98466.59;;;24.61;46.10
56825;BME280;42705;50.326;18.772;2022-07-29T18:13:24;98460.78;;;24.52;46.79
56825;BME280;42705;50.326;18.772;2022-07-29T18:18:46;98470.08;;;24.50;47.31
56825;BME280;42705;50.326;18.772;2022-07-29T18:24:08;98463.94;;;24.40;48.18
56825;BME280;42705;50.326;18.772;2022-07-29T18:29:30;98455.67;;;24.30;48.25
56825;BME280;42705;50.326;18.772;2022-07-29T18:34:51;98454.84;;;24.17;48.82
56825;BME280;42705;50.326;18.772;2022-07-29T18:40:11;98449.37;;;24.03;49.42
56825;BME280;42705;50.326;18.772;2022-07-29T18:45:33;98446.48;;;23.85;50.00
56825;BME280;42705;50.326;18.772;2022-07-29T18:50:54;98453.30;;;23.60;50.85
56825;BME280;42705;50.326;18.772;2022-07-29T18:56:15;98476.41;;;23.45;51.57
56825;BME280;42705;50.326;18.772;2022-07-29T19:01:36;98477.23;;;23.27;52.28
56825;BME280;42705;50.326;18.772;2022-07-29T19:06:57;98476.75;;;23.21;52.71
56825;BME280;42705;50.326;18.772;2022-07-29T19:12:19;98486.20;;;23.14;53.45
56825;BME280;42705;50.326;18.772;2022-07-29T19:17:40;98516.73;;;23.09;53.76
56825;BME280;42705;50.326;18.772;2022-07-29T19:23:01;98525.58;;;23.09;54.03
56825;BME280;42705;50.326;18.772;2022-07-29T19:28:23;98536.86;;;23.11;54.62
56825;BME280;42705;50.326;18.772;2022-07-29T19:33:43;98543.24;;;23.10;54.80
56825;BME280;42705;50.326;18.772;2022-07-29T19:39:05;98552.28;;;23.00;54.98
56825;BME280;42705;50.326;18.772;2022-07-29T19:44:26;98544.27;;;22.75;55.41
56825;BME280;42705;50.326;18.772;2022-07-29T19:49:46;98534.05;;;22.55;56.11
56825;BME280;42705;50.326;18.772;2022-07-29T19:55:08;98526.61;;;22.41;56.53
56825;BME280;42705;50.326;18.772;2022-07-29T20:00:29;98522.67;;;22.28;57.02
56825;BME280;42705;50.326;18.772;2022-07-29T20:05:50;98523.16;;;22.18;57.64
56825;BME280;42705;50.326;18.772;2022-07-29T20:11:12;98508.99;;;22.18;58.10
56825;BME280;42705;50.326;18.772;2022-07-29T20:16:33;98485.25;;;22.09;58.31
56825;BME280;42705;50.326;18.772;2022-07-29T20:21:53;98476.63;;;21.91;58.63
56825;BME280;42705;50.326;18.772;2022-07-29T20:27:16;98476.47;;;21.79;58.96
56825;BME280;42705;50.326;18.772;2022-07-29T20:32:39;98474.13;;;21.74;59.35
56825;BME280;42705;50.326;18.772;2022-07-29T20:38:00;98459.90;;;21.71;59.61
56825;BME280;42705;50.326;18.772;2022-07-29T20:43:21;98457.75;;;21.63;59.91
56825;BME280;42705;50.326;18.772;2022-07-29T20:48:44;98452.05;;;21.60;60.00
56825;BME280;42705;50.326;18.772;2022-07-29T20:54:06;98452.38;;;21.54;60.23
56825;BME280;42705;50.326;18.772;2022-07-29T20:59:28;98442.26;;;21.47;60.55
56825;BME280;42705;50.326;18.772;2022-07-29T21:04:48;98438.09;;;21.35;60.86
56825;BME280;42705;50.326;18.772;2022-07-29T21:10:10;98434.40;;;21.36;61.16
56825;BME280;42705;50.326;18.772;2022-07-29T21:15:31;98423.75;;;21.36;61.35
56825;BME280;42705;50.326;18.772;2022-07-29T21:20:53;98419.88;;;21.32;61.59
56825;BME280;42705;50.326;18.772;2022-07-29T21:26:14;98413.03;;;21.27;61.86
56825;BME280;42705;50.326;18.772;2022-07-29T21:31:35;98406.27;;;21.24;62.05
56825;BME280;42705;50.326;18.772;2022-07-29T21:36:56;98407.47;;;21.28;62.29
56825;BME280;42705;50.326;18.772;2022-07-29T21:42:17;98410.74;;;21.30;62.44
56825;BME280;42705;50.326;18.772;2022-07-29T21:47:38;98405.95;;;21.30;62.50
56825;BME280;42705;50.326;18.772;2022-07-29T21:53:00;98407.30;;;21.23;62.74
56825;BME280;42705;50.326;18.772;2022-07-29T21:58:21;98416.01;;;21.21;63.01
56825;BME280;42705;50.326;18.772;2022-07-29T22:03:43;98415.39;;;21.25;63.12
56825;BME280;42705;50.326;18.772;2022-07-29T22:09:04;98414.55;;;21.32;63.19
56825;BME280;42705;50.326;18.772;2022-07-29T22:14:25;98413.41;;;21.30;63.27
56825;BME280;42705;50.326;18.772;2022-07-29T22:19:46;98415.39;;;21.25;63.36
56825;BME280;42705;50.326;18.772;2022-07-29T22:25:08;98408.32;;;21.22;63.39
56825;BME280;42705;50.326;18.772;2022-07-29T22:30:29;98405.90;;;21.14;63.59
56825;BME280;42705;50.326;18.772;2022-07-29T22:35:50;98398.71;;;21.14;63.79
56825;BME280;42705;50.326;18.772;2022-07-29T22:41:11;98407.73;;;21.13;63.93
56825;BME280;42705;50.326;18.772;2022-07-29T22:46:33;98401.86;;;21.20;64.10
56825;BME280;42705;50.326;18.772;2022-07-29T22:51:54;98397.06;;;21.20;64.14
56825;BME280;42705;50.326;18.772;2022-07-29T22:57:15;98389.57;;;21.19;64.22
56825;BME280;42705;50.326;18.772;2022-07-29T23:02:35;98389.56;;;21.26;64.23
56825;BME280;42705;50.326;18.772;2022-07-29T23:07:57;98383.08;;;21.31;64.19
56825;BME280;42705;50.326;18.772;2022-07-29T23:13:18;98379.98;;;21.34;64.08
56825;BME280;42705;50.326;18.772;2022-07-29T23:18:39;98361.46;;;21.30;63.96
56825;BME280;42705;50.326;18.772;2022-07-29T23:24:00;98355.53;;;21.28;63.87
56825;BME280;42705;50.326;18.772;2022-07-29T23:29:20;98342.03;;;21.23;63.66
56825;BME280;42705;50.326;18.772;2022-07-29T23:34:41;98327.64;;;21.15;63.27
56825;BME280;42705;50.326;18.772;2022-07-29T23:40:03;98333.21;;;21.06;63.46
56825;BME280;42705;50.326;18.772;2022-07-29T23:45:25;98320.92;;;21.05;63.38
56825;BME280;42705;50.326;18.772;2022-07-29T23:50:46;98312.73;;;21.00;63.17
56825;BME280;42705;50.326;18.772;2022-07-29T23:56:07;98302.50;;;20.97;63.07
